createdAt,value
2022-09-15T00:01:24.924Z,9.70
2022-09-15T00:03:58.026Z,10.40
2022-09-15T00:06:30.728Z,11.30
2022-09-15T00:09:04.952Z,11.10
2022-09-15T00:11:39.823Z,10.40
2022-09-15T00:14:13.022Z,12.00
2022-09-15T00:16:45.740Z,11.10
2022-09-15T00:19:18.583Z,9.80
2022-09-15T00:21:51.573Z,10.30
2022-09-15T00:24:24.343Z,8.90
2022-09-15T00:26:57.348Z,8.60
2022-09-15T00:29:30.020Z,6.30
2022-09-15T00:32:02.908Z,7.50
2022-09-15T00:34:36.026Z,9.10
2022-09-15T00:37:09.185Z,7.00
2022-09-15T00:39:42.383Z,7.50
2022-09-15T00:42:18.948Z,6.30
2022-09-15T00:44:56.795Z,6.90
2022-09-15T00:47:41.203Z,7.30
2022-09-15T00:50:19.105Z,7.40
2022-09-15T00:52:58.108Z,10.10
2022-09-15T00:55:37.268Z,8.50
2022-09-15T00:58:13.331Z,9.70
2022-09-15T01:00:55.566Z,10.00
2022-09-15T01:03:31.420Z,9.00
2022-09-15T01:06:10.636Z,8.60
2022-09-15T01:08:49.258Z,8.40
2022-09-15T01:11:22.441Z,7.90
2022-09-15T01:13:55.217Z,9.70
2022-09-15T01:16:38.153Z,8.70
2022-09-15T01:19:37.545Z,7.80
2022-09-15T01:22:25.601Z,10.10
2022-09-15T01:25:11.126Z,9.50
2022-09-15T01:28:39.545Z,9.50
2022-09-15T01:31:20.780Z,9.90
2022-09-15T01:34:00.097Z,7.90
2022-09-15T01:36:44.321Z,8.60
2022-09-15T01:39:22.830Z,8.70
2022-09-15T01:42:00.349Z,10.30
2022-09-15T01:44:38.843Z,11.90
2022-09-15T01:47:17.260Z,12.70
2022-09-15T01:49:57.887Z,12.90
2022-09-15T01:52:31.581Z,12.30
2022-09-15T01:55:14.532Z,12.40
2022-09-15T01:57:47.232Z,13.80
2022-09-15T02:00:20.856Z,14.10
2022-09-15T02:02:59.863Z,14.70
2022-09-15T02:05:40.215Z,14.10
2022-09-15T02:08:23.373Z,15.50
2022-09-15T02:11:05.742Z,16.00
2022-09-15T02:13:48.915Z,16.10
2022-09-15T02:16:25.618Z,16.80
2022-09-15T02:19:13.274Z,17.60
2022-09-15T02:21:57.418Z,17.50
2022-09-15T02:24:38.090Z,17.10
2022-09-15T02:27:16.845Z,17.40
2022-09-15T02:29:51.240Z,18.70
2022-09-15T02:32:27.706Z,17.40
2022-09-15T02:35:05.089Z,18.50
2022-09-15T02:37:38.696Z,19.10
2022-09-15T02:40:13.053Z,19.40
2022-09-15T02:42:56.137Z,17.60
2022-09-15T02:45:30.681Z,17.00
2022-09-15T02:48:04.470Z,20.00
2022-09-15T02:50:37.725Z,19.50
2022-09-15T02:53:10.850Z,19.40
2022-09-15T02:55:43.527Z,19.50
2022-09-15T02:58:16.311Z,19.40
2022-09-15T03:00:49.032Z,20.30
2022-09-15T03:03:22.387Z,17.80
2022-09-15T03:05:55.268Z,16.60
2022-09-15T03:08:28.473Z,10.60
2022-09-15T03:11:02.893Z,10.20
2022-09-15T03:13:35.677Z,9.00
2022-09-15T03:16:14.842Z,8.70
2022-09-15T03:18:48.450Z,8.60
2022-09-15T03:21:22.922Z,7.80
2022-09-15T03:23:55.625Z,6.10
2022-09-15T03:26:28.488Z,6.90
2022-09-15T03:29:01.177Z,7.30
2022-09-15T03:31:34.108Z,7.20
2022-09-15T03:34:06.941Z,6.80
2022-09-15T03:36:40.028Z,7.50
2022-09-15T03:39:14.593Z,6.00
2022-09-15T03:41:47.434Z,6.60
2022-09-15T03:44:20.135Z,7.60
2022-09-15T03:46:53.307Z,6.90
2022-09-15T03:49:26.727Z,5.90
2022-09-15T03:51:59.694Z,6.60
2022-09-15T03:54:32.855Z,6.10
2022-09-15T03:57:05.867Z,7.20
2022-09-15T03:59:38.790Z,7.00
2022-09-15T04:02:11.599Z,7.50
2022-09-15T04:04:44.525Z,6.30
2022-09-15T04:07:17.376Z,6.30
2022-09-15T04:09:50.285Z,6.10
2022-09-15T04:12:23.124Z,5.80
2022-09-15T04:14:56.113Z,5.50
2022-09-15T04:17:28.896Z,5.20
2022-09-15T04:20:01.524Z,5.40
2022-09-15T04:22:36.264Z,5.60
2022-09-15T04:25:11.057Z,5.50
2022-09-15T04:27:43.980Z,6.40
2022-09-15T04:30:17.521Z,5.70
2022-09-15T04:32:51.989Z,5.50
2022-09-15T04:35:24.765Z,6.10
2022-09-15T04:37:58.598Z,6.40
2022-09-15T04:40:32.341Z,6.50
2022-09-15T04:43:06.803Z,5.80
2022-09-15T04:45:39.482Z,6.60
2022-09-15T04:48:12.262Z,6.30
2022-09-15T04:50:44.849Z,6.30
2022-09-15T04:53:18.010Z,6.80
2022-09-15T04:55:51.118Z,5.40
2022-09-15T04:58:23.897Z,6.30
2022-09-15T05:00:56.713Z,6.60
2022-09-15T05:03:29.465Z,6.80
2022-09-15T05:06:02.044Z,7.20
2022-09-15T05:08:34.723Z,7.90
2022-09-15T05:11:12.365Z,8.00
2022-09-15T05:13:45.818Z,8.60
2022-09-15T05:16:22.200Z,9.00
2022-09-15T05:18:57.252Z,8.80
2022-09-15T05:21:30.768Z,8.40
2022-09-15T05:24:03.831Z,8.60
2022-09-15T05:26:36.495Z,8.70
2022-09-15T05:29:09.398Z,7.70
2022-09-15T05:31:42.338Z,7.60
2022-09-15T05:34:15.654Z,8.00
2022-09-15T05:36:48.640Z,8.50
2022-09-15T05:39:21.487Z,8.00
2022-09-15T05:41:54.412Z,8.30
2022-09-15T05:44:27.501Z,6.50
2022-09-15T05:47:00.291Z,8.30
2022-09-15T05:49:34.188Z,7.90
2022-09-15T05:52:08.220Z,7.70
2022-09-15T05:54:40.936Z,7.30
2022-09-15T05:57:13.657Z,6.80
2022-09-15T05:59:46.442Z,6.60
2022-09-15T06:02:19.479Z,6.60
2022-09-15T06:04:52.418Z,6.60
2022-09-15T06:07:25.203Z,7.00
2022-09-15T06:09:57.992Z,6.60
2022-09-15T06:12:31.388Z,7.20
2022-09-15T06:15:04.584Z,7.00
2022-09-15T06:17:37.480Z,7.00
2022-09-15T06:20:12.307Z,7.10
2022-09-15T06:22:44.970Z,6.80
2022-09-15T06:25:17.853Z,7.00
2022-09-15T06:27:54.631Z,6.60
2022-09-15T06:30:27.614Z,5.80
2022-09-15T06:33:00.596Z,6.00
2022-09-15T06:35:33.485Z,7.00
2022-09-15T06:38:06.757Z,6.30
2022-09-15T06:40:39.479Z,5.80
2022-09-15T06:43:12.360Z,6.00
2022-09-15T06:45:45.163Z,5.30
2022-09-15T06:48:24.464Z,5.60
2022-09-15T06:53:34.443Z,4.20
2022-09-15T06:56:10.317Z,4.20
2022-09-15T06:58:45.201Z,4.70
2022-09-15T07:01:26.767Z,4.50
2022-09-15T07:04:03.019Z,4.70
2022-09-15T07:06:37.390Z,3.80
2022-09-15T07:09:12.225Z,3.90
2022-09-15T07:11:45.146Z,4.20
2022-09-15T07:14:18.196Z,3.30
2022-09-15T07:16:51.037Z,3.70
2022-09-15T07:19:23.964Z,3.70
2022-09-15T07:21:56.756Z,3.60
2022-09-15T07:24:29.626Z,3.40
2022-09-15T07:27:02.513Z,3.10
2022-09-15T07:29:37.805Z,3.80
2022-09-15T07:32:10.735Z,3.40
2022-09-15T07:34:43.720Z,3.90
2022-09-15T07:37:16.611Z,3.50
2022-09-15T07:39:49.730Z,3.60
2022-09-15T07:42:22.503Z,3.60
2022-09-15T07:44:55.625Z,2.90
2022-09-15T07:47:28.352Z,3.90
2022-09-15T07:50:01.774Z,3.10
2022-09-15T07:52:37.495Z,2.70
2022-09-15T07:55:12.413Z,3.40
2022-09-15T07:57:45.162Z,2.70
2022-09-15T08:00:19.623Z,2.90
2022-09-15T08:02:52.528Z,3.60
2022-09-15T08:05:28.294Z,2.80
2022-09-15T08:08:02.777Z,2.80
2022-09-15T08:10:36.115Z,3.30
2022-09-15T08:13:09.116Z,3.40
2022-09-15T08:15:42.311Z,3.30
2022-09-15T08:18:15.466Z,2.80
2022-09-15T08:20:48.263Z,3.30
2022-09-15T08:23:21.433Z,2.80
2022-09-15T08:25:54.555Z,3.10
2022-09-15T08:28:27.505Z,2.90
2022-09-15T08:31:08.844Z,2.70
2022-09-15T08:33:45.446Z,2.90
2022-09-15T08:36:18.883Z,2.80
2022-09-15T08:38:51.768Z,2.90
2022-09-15T08:41:28.878Z,3.00
2022-09-15T08:44:12.351Z,2.50
2022-09-15T08:46:52.466Z,3.20
2022-09-15T08:52:24.726Z,2.10
2022-09-15T08:55:02.569Z,2.00
2022-09-15T08:57:35.390Z,2.30
2022-09-15T09:00:14.918Z,2.50
2022-09-15T09:03:24.271Z,2.40
2022-09-15T09:06:03.486Z,2.90
2022-09-15T09:09:16.647Z,2.40
2022-09-15T09:12:14.709Z,2.50
2022-09-15T09:15:05.430Z,2.30
2022-09-15T09:17:59.847Z,2.20
2022-09-15T09:20:45.455Z,2.60
2022-09-15T09:23:23.634Z,2.40
2022-09-15T09:25:57.495Z,2.70
2022-09-15T09:28:38.062Z,2.80
2022-09-15T09:31:19.094Z,2.50
2022-09-15T09:33:57.613Z,2.90
2022-09-15T09:36:30.458Z,2.50
2022-09-15T09:39:05.830Z,2.50
2022-09-15T09:41:39.899Z,2.80
2022-09-15T09:44:16.786Z,2.60
2022-09-15T09:46:50.483Z,2.30
2022-09-15T09:49:26.842Z,2.50
2022-09-15T09:52:03.518Z,2.40
2022-09-15T09:54:37.756Z,2.40
2022-09-15T09:57:35.104Z,2.40
2022-09-15T10:00:35.047Z,2.80
2022-09-15T10:03:19.872Z,2.60
2022-09-15T10:06:08.537Z,2.30
2022-09-15T10:08:58.136Z,2.40
2022-09-15T10:11:47.944Z,2.10
2022-09-15T10:14:33.060Z,2.40
2022-09-15T10:17:10.519Z,2.60
2022-09-15T10:19:51.323Z,2.70
2022-09-15T10:22:31.645Z,3.80
2022-09-15T10:25:35.679Z,4.20
2022-09-15T10:28:21.876Z,2.40
2022-09-15T10:31:08.328Z,2.50
2022-09-15T10:33:45.104Z,2.20
2022-09-15T10:36:23.821Z,2.10
2022-09-15T10:39:08.144Z,2.20
2022-09-15T10:41:47.130Z,2.20
2022-09-15T10:44:35.520Z,2.10
2022-09-15T10:47:23.152Z,2.60
2022-09-15T10:50:13.030Z,2.80
2022-09-15T10:53:07.898Z,2.40
2022-09-15T10:55:57.717Z,2.10
2022-09-15T10:58:48.911Z,2.60
2022-09-15T11:01:41.251Z,3.10
2022-09-15T11:04:32.903Z,2.40
2022-09-15T11:07:14.278Z,3.00
2022-09-15T11:09:51.801Z,3.10
2022-09-15T11:12:43.636Z,3.00
2022-09-15T11:15:34.646Z,2.50
2022-09-15T11:18:27.866Z,3.00
2022-09-15T11:21:18.368Z,2.90
2022-09-15T11:23:58.752Z,2.70
2022-09-15T11:26:38.136Z,2.60
2022-09-15T11:29:19.529Z,2.40
2022-09-15T11:31:56.969Z,2.10
2022-09-15T11:34:36.422Z,2.20
2022-09-15T11:37:15.715Z,2.60
2022-09-15T11:39:56.014Z,2.60
2022-09-15T11:42:33.974Z,2.10
2022-09-15T11:45:15.164Z,2.20
2022-09-15T11:47:51.704Z,2.80
2022-09-15T11:50:30.138Z,2.30
2022-09-15T11:53:10.408Z,2.70
2022-09-15T11:58:27.331Z,2.30
2022-09-15T12:01:10.356Z,2.00
2022-09-15T12:03:50.299Z,2.40
2022-09-15T12:06:28.211Z,2.70
2022-09-15T12:09:03.362Z,2.50
2022-09-15T12:11:42.340Z,2.60
2022-09-15T12:14:20.886Z,2.70
2022-09-15T12:16:53.900Z,2.20
2022-09-15T12:19:50.101Z,1.80
2022-09-15T12:22:30.178Z,1.90
2022-09-15T12:25:07.320Z,2.00
2022-09-15T12:27:40.249Z,1.80
2022-09-15T12:30:41.271Z,2.40
2022-09-15T12:33:55.027Z,2.00
2022-09-15T12:36:47.014Z,2.00
2022-09-15T12:39:38.804Z,2.20
2022-09-15T12:42:22.716Z,2.40
2022-09-15T12:44:59.903Z,2.20
2022-09-15T12:47:37.284Z,2.80
2022-09-15T12:50:26.891Z,2.20
2022-09-15T12:53:03.494Z,2.30
2022-09-15T12:55:39.021Z,3.10
2022-09-15T12:58:18.835Z,2.80
2022-09-15T13:01:17.225Z,2.50
2022-09-15T13:04:29.232Z,2.70
2022-09-15T13:07:35.514Z,2.50
2022-09-15T13:10:43.414Z,3.20
2022-09-15T13:13:23.851Z,3.00
2022-09-15T13:15:58.603Z,3.10
2022-09-15T13:18:33.620Z,3.00
2022-09-15T13:21:14.485Z,2.70
2022-09-15T13:23:53.244Z,3.00
2022-09-15T13:26:30.610Z,3.10
2022-09-15T13:29:03.784Z,2.80
2022-09-15T13:31:51.200Z,3.50
2022-09-15T13:35:04.523Z,3.20
2022-09-15T13:38:54.857Z,2.50
2022-09-15T13:42:10.535Z,2.40
2022-09-15T13:45:09.422Z,2.70
2022-09-15T13:48:10.987Z,2.40
2022-09-15T13:50:49.087Z,2.90
2022-09-15T13:53:36.590Z,2.90
2022-09-15T13:56:12.968Z,2.40
2022-09-15T13:58:58.083Z,2.10
2022-09-15T14:01:34.827Z,2.70
2022-09-15T14:04:11.512Z,3.00
2022-09-15T14:06:48.090Z,2.10
2022-09-15T14:09:27.258Z,3.10
2022-09-15T14:12:09.031Z,2.40
2022-09-15T14:14:45.839Z,2.80
2022-09-15T14:17:25.942Z,2.50
2022-09-15T14:20:01.150Z,2.70
2022-09-15T14:22:36.526Z,2.70
2022-09-15T14:25:18.899Z,3.00
2022-09-15T14:27:54.102Z,3.00
2022-09-15T14:30:30.769Z,2.60
2022-09-15T14:33:05.265Z,3.00
2022-09-15T14:35:40.810Z,2.80
2022-09-15T14:38:25.535Z,2.80
2022-09-15T14:41:01.947Z,2.80
2022-09-15T14:43:39.458Z,3.00
2022-09-15T14:46:21.202Z,2.90
2022-09-15T14:48:53.804Z,3.20
2022-09-15T14:51:33.157Z,2.70
2022-09-15T14:54:07.146Z,2.40
2022-09-15T14:56:44.310Z,2.60
2022-09-15T14:59:24.486Z,2.80
2022-09-15T15:02:09.106Z,2.20
2022-09-15T15:04:45.622Z,1.80
2022-09-15T15:07:24.252Z,2.40
2022-09-15T15:10:00.295Z,2.40
2022-09-15T15:12:36.296Z,2.20
2022-09-15T15:15:14.035Z,2.40
2022-09-15T15:17:49.956Z,2.60
2022-09-15T15:20:27.192Z,2.70
2022-09-15T15:23:19.026Z,2.30
2022-09-15T15:25:52.300Z,2.40
2022-09-15T15:28:37.626Z,2.20
2022-09-15T15:31:19.774Z,2.10
2022-09-15T15:33:59.534Z,2.50
2022-09-15T15:36:35.503Z,2.40
2022-09-15T15:39:21.182Z,2.20
2022-09-15T15:42:05.302Z,2.30
2022-09-15T15:44:38.217Z,2.40
2022-09-15T15:47:29.972Z,2.10
2022-09-15T15:50:14.204Z,2.40
2022-09-15T15:52:47.751Z,2.10
2022-09-15T15:55:22.646Z,2.30
2022-09-15T15:57:57.168Z,2.10
2022-09-15T16:00:34.165Z,2.40
2022-09-15T16:03:08.312Z,2.60
2022-09-15T16:05:43.836Z,2.10
2022-09-15T16:08:25.580Z,2.40
2022-09-15T16:10:59.437Z,2.30
2022-09-15T16:13:32.684Z,3.30
2022-09-15T16:16:15.503Z,2.30
2022-09-15T16:18:49.102Z,2.10
2022-09-15T16:21:28.650Z,2.10
2022-09-15T16:24:01.431Z,2.70
2022-09-15T16:26:35.753Z,2.80
2022-09-15T16:29:08.730Z,2.30
2022-09-15T16:31:43.144Z,2.40
2022-09-15T16:34:19.597Z,2.10
2022-09-15T16:36:52.400Z,2.60
2022-09-15T16:39:25.392Z,2.20
2022-09-15T16:44:35.775Z,2.60
2022-09-15T16:47:08.648Z,2.00
2022-09-15T16:49:42.552Z,2.10
2022-09-15T16:52:17.494Z,2.00
2022-09-15T16:54:50.472Z,2.40
2022-09-15T16:57:23.362Z,2.00
2022-09-15T16:59:56.154Z,2.60
2022-09-15T17:02:29.436Z,2.20
2022-09-15T17:05:02.326Z,2.40
2022-09-15T17:07:35.305Z,2.20
2022-09-15T17:10:10.194Z,2.30
2022-09-15T17:12:43.740Z,2.00
2022-09-15T17:15:24.746Z,1.90
2022-09-15T17:17:58.448Z,2.20
2022-09-15T17:20:34.745Z,2.10
2022-09-15T17:23:23.640Z,2.90
2022-09-15T17:25:59.291Z,3.30
2022-09-15T17:28:33.942Z,2.00
2022-09-15T17:31:13.465Z,2.60
2022-09-15T17:33:47.575Z,1.60
2022-09-15T17:36:20.782Z,2.20
2022-09-15T17:38:53.588Z,1.90
2022-09-15T17:41:26.736Z,1.90
2022-09-15T17:43:59.926Z,1.70
2022-09-15T17:46:32.958Z,1.90
2022-09-15T17:49:06.346Z,2.00
2022-09-15T17:51:39.158Z,2.10
2022-09-15T17:54:14.244Z,1.90
2022-09-15T17:56:47.029Z,1.90
2022-09-15T17:59:19.716Z,2.10
2022-09-15T18:01:52.886Z,2.00
2022-09-15T18:04:25.773Z,1.80
2022-09-15T18:06:59.269Z,2.10
2022-09-15T18:09:32.377Z,2.10
2022-09-15T18:12:05.920Z,2.20
2022-09-15T18:14:38.660Z,2.50
2022-09-15T18:17:12.506Z,2.40
2022-09-15T18:19:45.350Z,2.10
2022-09-15T18:22:18.812Z,2.00
2022-09-15T18:24:51.628Z,2.10
2022-09-15T18:27:24.602Z,2.20
2022-09-15T18:29:57.760Z,2.30
2022-09-15T18:32:30.574Z,2.00
2022-09-15T18:35:03.764Z,2.40
2022-09-15T18:37:37.120Z,2.30
2022-09-15T18:40:13.972Z,2.20
2022-09-15T18:42:47.402Z,2.20
2022-09-15T18:45:23.038Z,2.30
2022-09-15T18:47:57.001Z,1.90
2022-09-15T18:50:29.879Z,2.30
2022-09-15T18:53:02.658Z,2.30
2022-09-15T18:55:36.054Z,2.10
2022-09-15T18:58:08.892Z,2.10
2022-09-15T19:00:42.248Z,2.20
2022-09-15T19:03:15.529Z,2.10
2022-09-15T19:05:48.933Z,2.30
2022-09-15T19:08:22.422Z,2.30
2022-09-15T19:11:02.459Z,2.10
2022-09-15T19:13:35.982Z,1.90
2022-09-15T19:16:10.683Z,2.10
2022-09-15T19:18:45.228Z,2.40
2022-09-15T19:21:18.804Z,2.30
2022-09-15T19:23:51.714Z,2.20
2022-09-15T19:26:28.930Z,2.10
2022-09-15T19:29:01.786Z,2.80
2022-09-15T19:31:37.439Z,2.20
2022-09-15T19:34:12.879Z,2.10
2022-09-15T19:36:45.970Z,2.00
2022-09-15T19:39:19.282Z,2.60
2022-09-15T19:41:52.496Z,2.40
2022-09-15T19:44:25.954Z,2.10
2022-09-15T19:46:59.254Z,2.20
2022-09-15T19:49:32.237Z,2.40
2022-09-15T19:52:06.761Z,2.20
2022-09-15T19:54:39.750Z,2.10
2022-09-15T19:57:12.632Z,2.40
2022-09-15T19:59:46.090Z,2.30
2022-09-15T20:02:20.197Z,2.40
2022-09-15T20:07:50.083Z,2.20
2022-09-15T20:10:23.760Z,2.70
2022-09-15T20:12:57.740Z,2.80
2022-09-15T20:15:32.069Z,2.70
2022-09-15T20:18:07.266Z,2.50
2022-09-15T20:20:44.592Z,2.80
2022-09-15T20:23:18.331Z,2.60
2022-09-15T20:26:04.024Z,2.70
2022-09-15T20:28:39.368Z,2.80
2022-09-15T20:31:16.400Z,3.30
2022-09-15T20:33:52.320Z,2.60
2022-09-15T20:36:30.231Z,2.80
2022-09-15T20:39:05.851Z,2.40
2022-09-15T20:41:40.685Z,2.90
2022-09-15T20:44:14.592Z,2.70
2022-09-15T20:46:48.388Z,2.30
2022-09-15T20:49:22.447Z,2.60
2022-09-15T20:51:56.423Z,2.30
2022-09-15T20:54:30.040Z,2.30
2022-09-15T20:57:03.609Z,2.60
2022-09-15T20:59:37.891Z,2.90
2022-09-15T21:02:12.524Z,2.80
2022-09-15T21:04:46.136Z,2.50
2022-09-15T21:07:20.640Z,2.60
2022-09-15T21:09:54.345Z,2.30
2022-09-15T21:12:28.031Z,2.30
2022-09-15T21:15:01.815Z,2.50
2022-09-15T21:17:35.482Z,2.90
2022-09-15T21:20:11.117Z,2.40
2022-09-15T21:22:44.610Z,2.90
2022-09-15T21:25:18.498Z,2.50
2022-09-15T21:27:52.032Z,2.90
2022-09-15T21:30:25.476Z,2.40
2022-09-15T21:32:58.897Z,2.50
2022-09-15T21:35:32.863Z,2.00
2022-09-15T21:38:07.006Z,2.10
2022-09-15T21:40:46.418Z,2.20
2022-09-15T21:43:20.391Z,2.30
2022-09-15T21:45:57.948Z,2.00
2022-09-15T21:48:32.768Z,2.40
2022-09-15T21:51:07.867Z,2.10
2022-09-15T21:53:42.519Z,2.50
2022-09-15T21:56:16.638Z,2.80
2022-09-15T21:58:50.350Z,2.70
2022-09-15T22:01:26.817Z,2.60
2022-09-15T22:04:02.976Z,2.30
2022-09-15T22:06:40.639Z,2.30
2022-09-15T22:09:18.271Z,2.00
2022-09-15T22:11:52.289Z,2.30
2022-09-15T22:14:25.872Z,2.30
2022-09-15T22:16:59.428Z,2.30
2022-09-15T22:19:33.183Z,2.00
2022-09-15T22:22:06.842Z,2.20
2022-09-15T22:24:40.544Z,2.30
2022-09-15T22:27:14.860Z,2.40
2022-09-15T22:29:48.560Z,2.00
2022-09-15T22:32:22.165Z,2.00
2022-09-15T22:34:56.069Z,1.90
2022-09-15T22:37:30.908Z,1.90
2022-09-15T22:40:05.014Z,2.10
2022-09-15T22:42:38.878Z,2.50
2022-09-15T22:45:14.067Z,2.00
2022-09-15T22:47:47.464Z,2.30
2022-09-15T22:50:22.053Z,2.30
2022-09-15T22:52:56.404Z,2.10
2022-09-15T22:55:31.404Z,2.40
2022-09-15T22:58:04.959Z,2.50
2022-09-15T23:00:40.318Z,2.70
2022-09-15T23:03:13.836Z,2.20
2022-09-15T23:05:46.912Z,1.90
2022-09-15T23:08:19.591Z,1.80
2022-09-15T23:10:52.588Z,1.80
2022-09-15T23:13:25.265Z,2.20
2022-09-15T23:15:58.192Z,2.40
2022-09-15T23:18:31.646Z,2.00
2022-09-15T23:21:07.496Z,1.80
2022-09-15T23:23:43.425Z,1.90
2022-09-15T23:26:18.691Z,2.50
2022-09-15T23:28:51.786Z,1.90
2022-09-15T23:31:24.918Z,2.00
2022-09-15T23:33:57.961Z,2.20
2022-09-15T23:36:31.047Z,2.20
2022-09-15T23:39:03.716Z,2.40
2022-09-15T23:41:36.958Z,2.00
2022-09-15T23:44:10.001Z,2.10
2022-09-15T23:46:42.882Z,2.00
2022-09-15T23:49:18.709Z,2.60
2022-09-15T23:51:51.739Z,2.40
2022-09-15T23:54:24.410Z,1.80
2022-09-15T23:56:57.191Z,2.10
2022-09-15T23:59:29.986Z,2.10
